Other Surface Observations
Issued by NWS Missoula, MT

Home | Current Version | Previous Version | Text Only | Print | Product List | Glossary On
Versions: 1 2 3 4 5 6 7 8 9 10 11 12 13 14 15 16 17 18 19 20 21 22 23 24 25 26 27 28 29 30 31 32 33 34 35 36 37 38 39 40 41 42 43 44 45 46 47 48 49 50
000
SXUS55 KMSO 151603
OSOMSO
MONTANA AWOS SUMMARY
NATIONAL WEATHER SERVICE MISSOULA MT
903 AM MST FRI DEC 15 2017

Montana AWOS Reports

ROUNDUP     |KRPX 151555Z AUTO 24022G34KT 40SM 09/M12 A2972 RMK AO1 T00941121
SCOBEY      |K9S2 151555Z AUTO 00000KT 40SM 00/M08 A2964 RMK AO1 T00001077
EKALAKA     |K97M 151555Z AUTO 23011G15KT 190V270 40SM 02/M09 A2976 RMK AO1 T00171088
PLAINS      |KS34 151555Z AUTO 00000KT 10SM M02/M04 A3009 RMK AO1 T10161043
TWIN BRIDGES|K7S1 151555Z AUTO 00000KT 40SM M06/M10 A3006 RMK AO1 T10551099




USA.gov is the U.S. government's official web portal to all federal, state and local government web resources and services.